Time;durP1;ratioP1;P1;durP2;ratioP2;P2;SDS_P1;SDS_P2;PMS_P1;PMS_P2;Temp;Humidity;BMP_temperature;BMP_pressure;BME280_temperature;BME280_humidity;BME280_pressure;Samples;Min_cycle;Max_cycle;Signal;HPM_P1;HPM_P2
2023/07/15 07:23:13;;;;;;;3.03;1.90;;;;;;;-145.79;51.17;75739.13;5400140;27;20249;-74
2023/07/15 07:25:45;;;;;;;3.22;2.30;;;;;;;-145.79;50.83;75747.59;5371913;27;20118;-73
2023/07/15 07:28:20;;;;;;;4.45;2.30;;;;;;;-145.79;50.88;75739.13;5375580;27;20022;-74
2023/07/15 07:30:51;;;;;;;3.95;2.47;;;;;;;-145.79;51.47;75732.78;5366686;27;20326;-76
2023/07/15 07:33:25;;;;;;;4.50;1.67;;;;;;;-145.79;51.27;75724.31;5379678;27;20019;-77
2023/07/15 07:35:57;;;;;;;3.28;1.70;;;;;;;-145.79;51.78;75730.66;5373498;27;20031;-76
2023/07/15 07:38:28;;;;;;;2.50;1.52;;;;;;;-145.79;51.75;75732.78;5372137;27;20030;-76
2023/07/15 07:41:07;;;;;;;2.13;1.65;;;;;;;-145.79;51.79;75732.78;5367066;27;20533;-76
2023/07/15 07:43:39;;;;;;;3.08;1.88;;;;;;;-145.79;52.37;75717.94;5364280;27;20047;-76
2023/07/15 07:46:11;;;;;;;2.42;1.67;;;;;;;-145.79;52.70;75717.94;5367350;27;20443;-76
2023/07/15 07:48:42;;;;;;;2.15;1.80;;;;;;;-145.79;52.79;75715.81;5381393;27;20072;-76
2023/07/15 07:51:14;;;;;;;4.05;1.80;;;;;;;-145.79;52.91;75711.59;5373427;27;20481;-77
2023/07/15 07:53:45;;;;;;;7.85;1.92;;;;;;;-145.79;52.98;75707.34;5364151;27;20031;-76
2023/07/15 07:56:18;;;;;;;3.15;1.42;;;;;;;-145.79;52.76;75703.13;5372636;27;20038;-77
2023/07/15 07:58:55;;;;;;;2.67;2.17;;;;;;;-145.79;53.07;75688.28;5372885;27;20027;-77
2023/07/15 08:01:28;;;;;;;2.53;1.95;;;;;;;-145.79;53.53;75673.44;5370601;27;20094;-76
2023/07/15 08:04:00;;;;;;;2.78;1.58;;;;;;;-145.79;52.78;75681.94;5365796;27;20030;-77
2023/07/15 08:06:31;;;;;;;2.00;1.52;;;;;;;-145.79;53.54;75696.75;5370378;27;20027;-76
2023/07/15 08:09:03;;;;;;;4.10;2.15;;;;;;;-145.79;53.36;75694.63;5372012;27;20022;-76
2023/07/15 08:11:34;;;;;;;3.53;3.20;;;;;;;-145.79;52.98;75690.41;5370709;27;20450;-74
2023/07/15 08:14:05;;;;;;;3.00;1.60;;;;;;;-145.79;53.23;75681.94;5372394;27;20023;-75
2023/07/15 08:16:38;;;;;;;4.72;1.85;;;;;;;-145.79;53.31;75669.22;5366350;27;20109;-81
2023/07/15 08:19:09;;;;;;;2.17;1.42;;;;;;;-145.79;53.59;75650.16;5373147;27;20034;-74
2023/07/15 08:21:40;;;;;;;4.15;3.40;;;;;;;-145.79;53.16;75648.03;5370703;27;20035;-78
2023/07/15 08:24:12;;;;;;;3.17;1.45;;;;;;;-145.79;53.48;75643.78;5376058;27;20389;-76
2023/07/15 08:26:43;;;;;;;1.60;1.35;;;;;;;-145.79;53.17;75637.44;5377054;27;20015;-77
2023/07/15 08:29:15;;;;;;;3.65;2.13;;;;;;;-145.79;52.94;75643.78;5374755;27;20048;-72
2023/07/15 08:31:47;;;;;;;3.20;1.50;;;;;;;-145.79;52.26;75639.56;5377770;27;20473;-76
2023/07/15 08:34:18;;;;;;;3.30;1.75;;;;;;;-145.79;53.04;75639.56;5357247;27;20031;-76
2023/07/15 08:36:51;;;;;;;2.17;1.73;;;;;;;-145.79;52.81;75648.03;5354202;27;20028;-76
2023/07/15 08:39:22;;;;;;;4.43;1.70;;;;;;;-145.79;52.93;75648.03;5359173;27;20363;-75
2023/07/15 08:41:55;;;;;;;2.97;1.90;;;;;;;-145.79;52.61;75643.78;5356464;27;20052;-77
2023/07/15 08:44:29;;;;;;;5.10;2.28;;;;;;;-145.79;52.18;75639.56;5340355;27;20034;-77
2023/07/15 08:47:01;;;;;;;3.25;1.90;;;;;;;-145.79;51.74;75648.03;5358388;27;20058;-75
2023/07/15 08:49:38;;;;;;;5.13;2.10;;;;;;;-145.79;51.54;75656.50;5366189;27;20084;-77
2023/07/15 08:52:11;;;;;;;4.60;2.00;;;;;;;-145.79;51.19;75648.03;5358751;27;20014;-79
2023/07/15 08:54:43;;;;;;;4.72;1.95;;;;;;;-145.79;51.27;75654.38;5352409;27;20033;-78
2023/07/15 08:57:17;;;;;;;7.32;2.00;;;;;;;-145.79;51.66;75671.34;5336170;27;20046;-78
2023/07/15 08:59:50;;;;;;;2.75;2.03;;;;;;;-145.79;50.94;75677.69;5360502;27;20022;-77
2023/07/15 09:02:22;;;;;;;4.63;2.00;;;;;;;-145.79;50.25;75692.53;5351328;27;20075;-77
2023/07/15 09:04:54;;;;;;;6.30;2.60;;;;;;;-145.79;49.25;75694.63;5365785;27;20633;-79
2023/07/15 09:07:26;;;;;;;4.07;2.03;;;;;;;-145.79;49.36;75709.47;5357826;27;20023;-77
2023/07/15 09:10:05;;;;;;;3.92;2.20;;;;;;;-145.79;49.36;75707.34;5359767;27;20031;-77
2023/07/15 09:12:36;;;;;;;4.10;2.30;;;;;;;-145.79;49.26;75711.59;5353802;27;20456;-76
2023/07/15 09:15:08;;;;;;;3.80;2.42;;;;;;;-145.79;49.58;75707.34;5359584;27;20031;-77
2023/07/15 09:17:41;;;;;;;6.72;3.63;;;;;;;-145.79;49.73;75703.13;5359396;27;20483;-76
2023/07/15 09:20:22;;;;;;;10.43;9.27;;;;;;;-145.79;49.76;75701.00;5345716;27;20055;-78
2023/07/15 09:22:59;;;;;;;8.90;3.17;;;;;;;-145.79;49.65;75688.28;5343369;27;20035;-77
2023/07/15 09:25:30;;;;;;;6.75;2.40;;;;;;;-145.79;49.71;75688.28;5359615;27;20018;-76
2023/07/15 09:28:02;;;;;;;6.70;2.90;;;;;;;-145.79;49.64;75675.56;5354144;27;20057;-78
2023/07/15 09:30:39;;;;;;;3.90;2.30;;;;;;;-145.79;49.47;75677.69;5365117;27;20462;-78
2023/07/15 09:33:47;;;;;;;6.60;3.10;;;;;;;-145.79;49.68;75677.69;5359014;27;20110;-78
2023/07/15 09:36:32;;;;;;;5.20;2.25;;;;;;;-145.79;49.59;75686.16;5270913;28;20130;-78
2023/07/15 09:39:13;;;;;;;4.32;2.33;;;;;;;-145.79;49.98;75698.88;5351048;27;20035;-79
2023/07/15 09:41:58;;;;;;;3.15;2.10;;;;;;;-145.79;50.20;75692.53;5362365;27;20031;-79
2023/07/15 09:44:40;;;;;;;7.18;2.00;;;;;;;-145.79;50.28;75711.59;5355228;27;20416;-79
2023/07/15 09:47:11;;;;;;;3.50;2.22;;;;;;;-145.79;50.07;75703.13;5356738;27;20035;-79
2023/07/15 09:49:44;;;;;;;2.08;1.80;;;;;;;-145.79;50.31;75711.59;5361008;27;20466;-77
2023/07/15 09:52:16;;;;;;;2.47;2.05;;;;;;;-145.79;50.33;75715.81;5363550;27;20034;-78
2023/07/15 09:54:48;;;;;;;2.55;2.00;;;;;;;-145.79;50.67;75720.06;5350283;27;20076;-73
2023/07/15 09:57:22;;;;;;;8.45;4.65;;;;;;;-145.79;51.17;75722.19;5361779;27;20075;-78
2023/07/15 09:59:58;;;;;;;3.22;2.08;;;;;;;-145.79;50.96;75728.53;5351561;27;20053;-76
2023/07/15 10:02:42;;;;;;;5.20;2.38;;;;;;;-145.79;51.16;75734.91;5349910;27;20057;-76
2023/07/15 10:05:14;;;;;;;7.80;2.53;;;;;;;-145.79;51.19;75734.91;5366771;27;20042;-76
2023/07/15 10:07:51;;;;;;;5.25;2.92;;;;;;;-145.79;51.55;75732.78;5373923;27;20034;-77
2023/07/15 10:10:25;;;;;;;3.85;2.35;;;;;;;-145.79;52.18;75734.91;5364345;27;20031;-76
2023/07/15 10:12:57;;;;;;;5.90;4.95;;;;;;;-145.79;54.04;75737.00;5370226;27;20037;-77
2023/07/15 10:15:29;;;;;;;7.80;2.88;;;;;;;-145.79;56.07;75741.25;5371858;27;20488;-75
2023/07/15 10:18:16;;;;;;;3.72;2.40;;;;;;;-145.79;55.67;75741.25;5354573;27;20031;-76
2023/07/15 10:20:56;;;;;;;3.50;2.13;;;;;;;-145.79;55.96;75732.78;5367960;27;20076;-77
2023/07/15 10:23:29;;;;;;;9.70;8.82;;;;;;;-145.79;56.80;75745.50;5347201;27;20028;-74
2023/07/15 10:26:08;;;;;;;6.45;3.03;;;;;;;-145.79;56.71;75741.25;5357039;27;20043;-73
2023/07/15 10:28:41;;;;;;;4.45;2.33;;;;;;;-145.79;57.91;75762.44;5363050;27;20380;-75
2023/07/15 10:31:13;;;;;;;4.22;2.22;;;;;;;-145.79;58.34;75749.72;5356762;27;20389;-74
2023/07/15 10:33:56;;;;;;;5.25;2.17;;;;;;;-145.79;58.07;75741.25;5355661;27;20444;-75
2023/07/15 10:36:41;;;;;;;4.07;2.28;;;;;;;-145.79;58.49;75737.00;5358877;27;20071;-75
2023/07/15 10:39:19;;;;;;;4.95;4.45;;;;;;;-145.79;59.55;75745.50;5358774;27;20033;-76
2023/07/15 10:41:53;;;;;;;3.88;2.13;;;;;;;-145.79;58.87;75741.25;5355953;27;20038;-76
2023/07/15 10:44:25;;;;;;;7.90;2.85;;;;;;;-145.79;59.14;75732.78;5357244;27;20075;-76
2023/07/15 10:47:07;;;;;;;6.30;2.90;;;;;;;-145.79;58.53;75730.66;5359828;27;20023;-75
2023/07/15 10:49:48;;;;;;;7.60;6.40;;;;;;;-145.79;58.51;75741.25;5356829;27;20027;-77
2023/07/15 10:52:22;;;;;;;7.60;5.63;;;;;;;-145.79;58.86;75724.31;5348385;27;20113;-76
2023/07/15 10:54:54;;;;;;;8.07;6.07;;;;;;;-145.79;58.65;75737.00;5347655;27;20031;-75
2023/07/15 10:57:26;;;;;;;10.80;7.47;;;;;;;-145.79;58.82;75737.00;5363020;27;20117;-73
2023/07/15 11:00:05;;;;;;;5.30;2.60;;;;;;;-145.79;57.98;75726.41;5363744;27;20054;-76
2023/07/15 11:02:36;;;;;;;3.55;2.25;;;;;;;-145.79;57.83;75739.13;5356187;27;20393;-75
2023/07/15 11:05:11;;;;;;;6.72;2.47;;;;;;;-145.79;57.96;75745.50;5351791;27;20042;-75
2023/07/15 11:07:43;;;;;;;6.28;2.65;;;;;;;-145.79;57.85;75749.72;5354609;27;20120;-76
2023/07/15 11:10:30;;;;;;;21.77;19.85;;;;;;;-145.79;57.55;75728.53;5359593;27;20045;-77
2023/07/15 11:13:16;;;;;;;3.55;3.25;;;;;;;-145.79;56.96;75715.81;5354871;27;20035;-78
2023/07/15 11:15:51;;;;;;;2.53;1.88;;;;;;;-145.79;56.05;75707.34;5349366;27;20411;-77
2023/07/15 11:18:25;;;;;;;3.88;1.98;;;;;;;-145.79;54.87;75694.63;5359910;27;20058;-77
2023/07/15 11:20:58;;;;;;;2.80;2.00;;;;;;;-145.79;54.73;75690.41;5356204;27;20039;-76
2023/07/15 11:23:31;;;;;;;3.08;2.13;;;;;;;-145.79;53.47;75694.63;5358396;27;20497;-75
2023/07/15 11:26:10;;;;;;;3.97;2.10;;;;;;;-145.79;53.06;75686.16;5356649;27;20029;-75
2023/07/15 11:28:48;;;;;;;4.00;2.42;;;;;;;-145.79;53.06;75686.16;5351830;27;20526;-76
2023/07/15 11:31:21;;;;;;;3.40;2.08;;;;;;;-145.79;52.02;75673.44;5353038;27;20023;-75
2023/07/15 11:33:57;;;;;;;4.90;2.30;;;;;;;-145.79;51.72;75681.94;5341559;27;20064;-74
2023/07/15 11:36:28;;;;;;;3.10;2.38;;;;;;;-145.79;51.04;75677.69;5349233;27;20497;-75
2023/07/15 11:39:00;;;;;;;4.65;2.33;;;;;;;-145.79;51.23;75669.22;5355068;27;20058;-74
2023/07/15 11:41:33;;;;;;;3.83;2.20;;;;;;;-145.79;51.63;75673.44;5357671;27;20023;-75
2023/07/15 11:44:13;;;;;;;4.18;3.05;;;;;;;-145.79;52.18;75658.63;5345268;27;20047;-76
2023/07/15 11:46:45;;;;;;;2.95;2.00;;;;;;;-145.79;52.62;75669.22;5339243;27;20106;-75
2023/07/15 11:49:21;;;;;;;3.35;2.00;;;;;;;-145.79;52.32;75652.25;5358653;27;20042;-75
2023/07/15 11:51:56;;;;;;;3.35;2.15;;;;;;;-145.79;52.59;75643.78;5354655;27;20042;-76
2023/07/15 11:54:31;;;;;;;3.53;2.00;;;;;;;-145.79;52.79;75648.03;5355774;27;20385;-77
2023/07/15 11:57:02;;;;;;;13.20;12.10;;;;;;;-145.79;53.17;75645.91;5356008;27;20030;-73
2023/07/15 11:59:34;;;;;;;67.90;61.45;;;;;;;-145.79;53.29;75639.56;5361164;27;20031;-72
2023/07/15 12:02:06;;;;;;;4.80;3.65;;;;;;;-145.79;53.15;75626.84;5349377;27;20037;-75
2023/07/15 12:04:41;;;;;;;3.03;2.10;;;;;;;-145.79;53.09;75624.72;5356939;27;20023;-72
2023/07/15 12:07:13;;;;;;;;;;;;;;;-145.79;52.97;75609.88;5356244;27;20125;-72
2023/07/15 12:09:44;;;;;;;3.20;2.40;;;;;;;-145.79;52.48;75609.88;5355039;27;20002;-71
2023/07/15 12:12:15;;;;;;;2.58;2.03;;;;;;;-145.79;52.75;75609.88;5362173;27;20313;-73
2023/07/15 12:14:47;;;;;;;4.13;2.55;;;;;;;-145.79;52.57;75601.41;5345033;27;20469;-74
2023/07/15 12:17:19;;;;;;;3.47;1.98;;;;;;;-145.79;52.42;75588.72;5355547;27;20438;-73
2023/07/15 12:19:51;;;;;;;4.15;2.47;;;;;;;-145.79;51.99;75578.13;5354264;27;20319;-75
2023/07/15 12:22:22;;;;;;;2.42;2.22;;;;;;;-145.79;52.22;75576.00;5360797;27;20070;-74
2023/07/15 12:24:53;;;;;;;6.68;2.30;;;;;;;-145.79;52.46;75565.41;5356622;27;20088;-74
2023/07/15 12:27:25;;;;;;;4.00;2.40;;;;;;;-145.79;52.40;75569.63;5360625;27;20050;-79
2023/07/15 12:29:58;;;;;;;2.90;2.22;;;;;;;-145.79;52.10;75559.03;5343869;27;20023;-78
2023/07/15 12:32:29;;;;;;;2.85;1.92;;;;;;;-145.79;51.39;75550.56;5359394;27;20103;-78
2023/07/15 12:35:01;;;;;;;4.05;2.22;;;;;;;-145.79;50.72;75529.38;5339079;27;20031;-75
2023/07/15 12:37:32;;;;;;;3.33;2.45;;;;;;;-145.79;50.49;75518.78;5360398;27;20034;-75
2023/07/15 12:40:04;;;;;;;3.42;2.67;;;;;;;-145.79;50.61;75512.44;5358543;27;20143;-76
2023/07/15 12:42:41;;;;;;;3.60;2.40;;;;;;;-145.79;50.78;75512.44;5355125;27;20031;-72
2023/07/15 12:45:14;;;;;;;3.30;2.33;;;;;;;-145.79;50.90;75512.44;5356492;27;20031;-75
2023/07/15 12:47:46;;;;;;;3.00;2.40;;;;;;;-145.79;51.13;75499.72;5337391;27;20401;-76
2023/07/15 12:50:17;;;;;;;5.97;3.83;;;;;;;-145.79;50.92;75493.38;5355946;27;20114;-74
2023/07/15 12:52:49;;;;;;;3.97;2.33;;;;;;;-145.79;50.50;75482.78;5354867;27;20560;-75
2023/07/15 12:55:20;;;;;;;5.45;2.42;;;;;;;-145.79;49.98;75461.59;5355793;27;20047;-78
2023/07/15 12:57:51;;;;;;;2.50;2.30;;;;;;;-145.79;49.51;75444.63;5359664;27;20019;-76
2023/07/15 13:00:23;;;;;;;3.53;2.33;;;;;;;-145.79;49.09;75444.63;5357699;27;20050;-75
2023/07/15 13:02:54;;;;;;;4.78;2.85;;;;;;;-145.79;48.60;75436.16;5362093;27;20470;-75
2023/07/15 13:05:26;;;;;;;4.00;2.58;;;;;;;-145.79;48.95;75431.94;5358168;27;20075;-75
2023/07/15 13:07:59;;;;;;;4.38;2.20;;;;;;;-145.79;49.17;75404.38;5351041;27;20027;-76
2023/07/15 13:10:30;;;;;;;24.52;22.13;;;;;;;-145.79;48.66;75376.84;5348912;27;20072;-74
2023/07/15 13:13:02;;;;;;;3.92;3.55;;;;;;;-145.79;48.57;75374.72;5351773;27;20023;-74
2023/07/15 13:15:36;;;;;;;3.47;2.45;;;;;;;-145.79;48.25;75364.13;5347740;27;20034;-74
2023/07/15 13:18:07;;;;;;;3.88;2.65;;;;;;;-145.79;48.11;75364.13;5356049;27;20027;-74
2023/07/15 13:20:39;;;;;;;4.45;2.70;;;;;;;-145.79;48.36;75359.91;5361867;27;20461;-75
2023/07/15 13:23:10;;;;;;;3.97;2.28;;;;;;;-145.79;48.59;75376.84;5347996;27;20039;-77
2023/07/15 13:25:42;;;;;;;4.75;2.50;;;;;;;-145.79;48.89;75381.09;5358758;27;20097;-77
2023/07/15 13:28:13;;;;;;;7.10;6.32;;;;;;;-145.79;48.79;75372.59;5357007;27;20147;-76
2023/07/15 13:30:44;;;;;;;4.47;2.60;;;;;;;-145.79;48.63;75389.56;5360478;27;20035;-76
2023/07/15 13:33:17;;;;;;;3.38;2.38;;;;;;;-145.79;48.94;75402.25;5357278;27;20436;-75
2023/07/15 13:35:48;;;;;;;4.95;4.13;;;;;;;-145.79;49.90;75398.03;5355820;27;20023;-82
2023/07/15 13:38:19;;;;;;;2.83;2.28;;;;;;;-145.79;50.66;75406.50;5359994;27;20143;-82
2023/07/15 13:40:51;;;;;;;3.40;2.70;;;;;;;-145.79;50.22;75395.91;5357324;27;20027;-74
2023/07/15 13:43:22;;;;;;;15.60;14.02;;;;;;;-145.79;47.66;75381.09;5353634;27;20512;-79
2023/07/15 13:45:54;;;;;;;26.00;23.45;;;;;;;-145.79;46.71;75381.09;5356431;27;20135;-77
2023/07/15 13:48:29;;;;;;;4.78;3.58;;;;;;;-145.79;46.14;75355.66;5351083;27;20060;-78
2023/07/15 13:51:00;;;;;;;4.88;2.63;;;;;;;-145.79;45.40;75317.53;5355655;27;20109;-79
2023/07/15 13:53:34;;;;;;;6.07;2.72;;;;;;;-145.79;44.42;75287.88;5351095;27;20031;-74
2023/07/15 13:56:05;;;;;;;6.50;2.42;;;;;;;-145.79;44.06;75268.78;5356332;27;20038;-73
2023/07/15 13:58:37;;;;;;;3.55;2.13;;;;;;;-145.79;44.21;75239.13;5347888;27;20451;-73
2023/07/15 14:01:10;;;;;;;5.95;2.70;;;;;;;-145.79;43.94;75209.47;5347045;27;20105;-74
2023/07/15 14:03:42;;;;;;;4.80;2.40;;;;;;;-145.79;43.76;75203.13;5346254;27;20027;-73
2023/07/15 14:06:13;;;;;;;4.35;2.80;;;;;;;-145.79;43.92;75198.88;5346296;27;20409;-73
2023/07/15 14:08:44;;;;;;;2.92;2.35;;;;;;;-145.79;44.45;75230.66;5344833;27;20020;-73
2023/07/15 14:11:16;;;;;;;3.30;2.45;;;;;;;-145.79;44.26;75249.72;5344734;27;20481;-74
2023/07/15 14:13:47;;;;;;;4.28;2.47;;;;;;;-145.79;44.10;75258.19;5351790;27;20378;-75
2023/07/15 14:16:18;;;;;;;3.60;2.28;;;;;;;-145.79;44.49;75264.56;5346552;27;20043;-73
2023/07/15 14:18:50;;;;;;;4.25;2.90;;;;;;;-145.79;43.85;75243.38;5348355;27;20023;-75
2023/07/15 14:21:23;;;;;;;6.78;2.55;;;;;;;-145.79;43.29;75241.25;5347677;27;20372;-77
2023/07/15 14:23:58;;;;;;;4.65;2.38;;;;;;;-145.79;42.59;75224.31;5352259;27;20023;-79
2023/07/15 14:26:30;;;;;;;6.45;2.67;;;;;;;-145.79;42.25;75209.47;5342265;27;20039;-76
2023/07/15 14:29:04;;;;;;;4.18;2.60;;;;;;;-145.79;42.15;75205.25;5347816;27;20047;-76
2023/07/15 14:31:38;;;;;;;6.63;2.97;;;;;;;-145.79;41.93;75198.88;5349823;27;20458;-77
2023/07/15 14:34:09;;;;;;;4.40;2.60;;;;;;;-145.79;41.93;75198.88;5348272;27;20035;-77
2023/07/15 14:36:40;;;;;;;6.70;3.42;;;;;;;-145.79;41.52;75177.69;5348029;27;20023;-76
2023/07/15 14:39:12;;;;;;;7.47;5.32;;;;;;;-145.79;41.36;75181.94;5325110;27;20119;-77
2023/07/15 14:41:43;;;;;;;8.50;7.32;;;;;;;-145.79;41.21;75154.41;5344789;27;20026;-78
2023/07/15 14:44:17;;;;;;;4.03;2.53;;;;;;;-145.79;41.50;75154.41;5342360;27;20023;-78
2023/07/15 14:46:48;;;;;;;5.88;2.47;;;;;;;-145.79;41.29;75148.03;5349209;27;20528;-76
2023/07/15 14:49:20;;;;;;;6.10;2.45;;;;;;;-145.79;41.22;75107.78;5351000;27;20051;-77
2023/07/15 14:51:51;;;;;;;5.00;2.78;;;;;;;-145.79;40.87;75126.84;5349320;27;20457;-77
2023/07/15 14:54:23;;;;;;;4.55;2.67;;;;;;;-145.79;40.90;75097.19;5347141;27;20527;-77
2023/07/15 14:56:54;;;;;;;6.35;3.53;;;;;;;-145.79;40.92;75076.00;5345827;27;20498;-73
2023/07/15 14:59:25;;;;;;;3.45;2.40;;;;;;;-145.79;40.54;75097.19;5350030;27;20074;-78
2023/07/15 15:01:57;;;;;;;3.17;2.63;;;;;;;-145.79;40.72;75114.16;5341489;27;20561;-78
2023/07/15 15:04:31;;;;;;;3.65;2.63;;;;;;;-145.79;40.85;75109.91;5348922;27;20106;-79
2023/07/15 15:07:08;;;;;;;3.60;2.47;;;;;;;-145.79;40.72;75120.50;5346967;27;20030;-80
2023/07/15 15:09:39;;;;;;;3.05;2.40;;;;;;;-145.79;40.59;75124.75;5351296;27;20084;-80
2023/07/15 15:12:10;;;;;;;4.85;2.70;;;;;;;-145.79;40.73;75107.78;5346847;27;20011;-76
2023/07/15 15:14:44;;;;;;;5.43;2.65;;;;;;;-145.79;40.78;75122.63;5344177;27;20474;-78
2023/07/15 15:17:17;;;;;;;3.33;2.42;;;;;;;-145.79;41.22;75135.34;5346875;27;20022;-78
2023/07/15 15:19:49;;;;;;;4.93;2.58;;;;;;;-145.79;41.31;75137.44;5348882;27;20106;-78
2023/07/15 15:22:25;;;;;;;2.88;2.03;;;;;;;-145.79;41.29;75131.09;5346549;27;20068;-78
2023/07/15 15:24:57;;;;;;;5.95;2.78;;;;;;;-145.79;40.67;75162.88;5344585;27;20115;-79
2023/07/15 15:27:28;;;;;;;4.75;2.13;;;;;;;-145.79;40.52;75173.47;5346289;27;20027;-79
2023/07/15 15:30:02;;;;;;;4.60;2.03;;;;;;;-145.79;40.42;75160.75;5344503;27;20363;-78
2023/07/15 15:32:33;;;;;;;2.53;1.90;;;;;;;-145.79;40.58;75173.47;5346080;27;20034;-78
2023/07/15 15:35:07;;;;;;;3.88;2.42;;;;;;;-145.79;40.87;75156.50;5348271;27;20381;-79
2023/07/15 15:37:38;;;;;;;2.65;2.15;;;;;;;-145.79;41.09;75150.16;5350505;27;20046;-79
2023/07/15 15:40:09;;;;;;;5.63;2.90;;;;;;;-145.79;41.43;75156.50;5352050;27;20402;-78
2023/07/15 15:42:41;;;;;;;6.00;3.72;;;;;;;-145.79;41.83;75156.50;5347683;27;20035;-80
2023/07/15 15:45:12;;;;;;;6.57;2.55;;;;;;;-145.79;41.86;75188.28;5353869;27;20016;-75
2023/07/15 15:47:43;;;;;;;5.65;2.50;;;;;;;-145.79;41.81;75201.00;5351070;27;20118;-79
2023/07/15 15:50:15;;;;;;;4.40;2.50;;;;;;;-145.79;41.73;75215.84;5353438;27;20098;-77
2023/07/15 15:52:48;;;;;;;6.57;3.28;;;;;;;-145.79;42.16;75279.38;5350434;27;20023;-81
2023/07/15 15:55:20;;;;;;;8.10;2.22;;;;;;;-145.79;44.45;75429.81;5353654;27;20412;-79
2023/07/15 15:57:52;;;;;;;7.32;2.17;;;;;;;-145.79;45.30;75461.59;5350170;27;20023;-78
2023/07/15 16:00:23;;;;;;;6.47;2.55;;;;;;;-145.79;47.85;75567.53;5360094;27;20106;-79
2023/07/15 16:02:55;;;;;;;6.35;2.00;;;;;;;-145.79;48.90;75601.41;5358489;27;20385;-79
2023/07/15 16:05:26;;;;;;;4.63;2.17;;;;;;;-145.79;53.11;75756.09;5353056;27;20027;-80
2023/07/15 16:07:58;;;;;;;4.25;2.10;;;;;;;-145.79;54.16;75773.03;5351188;27;20019;-76
2023/07/15 16:10:30;;;;;;;4.45;3.22;;;;;;;-145.79;57.30;75792.09;5351984;27;20019;-76
2023/07/15 16:13:01;;;;;;;4.57;2.72;;;;;;;-145.79;58.51;75809.06;5344892;27;20031;-75
2023/07/15 16:15:33;;;;;;;4.85;2.13;;;;;;;-145.79;60.80;75826.00;5347327;27;20030;-72
2023/07/15 16:18:04;;;;;;;4.72;2.40;;;;;;;-145.79;62.89;75836.59;5355183;27;20029;-74
2023/07/15 16:20:36;;;;;;;4.40;2.42;;;;;;;-145.79;64.44;75853.56;5347994;27;20035;-74
2023/07/15 16:23:08;;;;;;;2.95;2.05;;;;;;;-145.79;63.58;75821.75;5353934;27;20446;-75
2023/07/15 16:25:42;;;;;;;3.92;2.03;;;;;;;-145.79;63.62;75821.75;5348539;27;20031;-73
2023/07/15 16:28:14;;;;;;;4.43;2.65;;;;;;;-145.79;64.06;75821.75;5352854;27;20050;-76
2023/07/15 16:30:51;;;;;;;2.58;2.25;;;;;;;-145.79;64.96;75838.72;5355024;27;20050;-76
2023/07/15 16:33:22;;;;;;;6.03;3.20;;;;;;;-145.79;64.37;75838.72;5354226;27;20153;-76
2023/07/15 16:35:54;;;;;;;5.28;3.00;;;;;;;-145.79;64.39;75826.00;5357283;27;20055;-77
2023/07/15 16:38:25;;;;;;;3.10;2.17;;;;;;;-145.79;65.05;75813.28;5366811;27;20026;-77
2023/07/15 16:40:57;;;;;;;7.80;2.92;;;;;;;-145.79;65.02;75830.25;5365300;27;20023;-77
2023/07/15 16:43:30;;;;;;;8.45;4.25;;;;;;;-145.79;63.76;75813.28;5364046;27;20551;-77
2023/07/15 16:46:01;;;;;;;8.00;3.22;;;;;;;-145.79;64.32;75813.28;5365443;27;20393;-76
2023/07/15 16:48:34;;;;;;;4.45;2.65;;;;;;;-145.79;63.94;75800.56;5365765;27;20023;-79
2023/07/15 16:51:05;;;;;;;4.88;3.03;;;;;;;-145.79;65.71;75842.97;5357405;27;20083;-80
2023/07/15 16:53:37;;;;;;;4.47;2.20;;;;;;;-145.79;64.93;75838.72;5345313;27;20104;-80
